sensor_id;sensor_type;location;lat;lon;timestamp;P1;durP1;ratioP1;P2;durP2;ratioP2
12038;SDS011;6080;48.818;9.526;2022-09-09T00:03:43;45.10;;;42.50;;
12038;SDS011;6080;48.818;9.526;2022-09-09T00:06:30;13.93;;;13.13;;
12038;SDS011;6080;48.818;9.526;2022-09-09T00:14:12;10.63;;;9.93;;
12038;SDS011;6080;48.818;9.526;2022-09-09T00:17:01;7.73;;;7.27;;
12038;SDS011;6080;48.818;9.526;2022-09-09T00:19:33;8.70;;;8.10;;
12038;SDS011;6080;48.818;9.526;2022-09-09T00:22:39;8.20;;;7.47;;
12038;SDS011;6080;48.818;9.526;2022-09-09T00:25:19;10.23;;;9.23;;
12038;SDS011;6080;48.818;9.526;2022-09-09T00:27:53;7.37;;;6.67;;
12038;SDS011;6080;48.818;9.526;2022-09-09T00:30:22;6.97;;;6.37;;
12038;SDS011;6080;48.818;9.526;2022-09-09T00:32:51;14.33;;;13.47;;
12038;SDS011;6080;48.818;9.526;2022-09-09T00:35:27;11.27;;;10.70;;
12038;SDS011;6080;48.818;9.526;2022-09-09T00:37:58;13.47;;;12.53;;
12038;SDS011;6080;48.818;9.526;2022-09-09T00:40:32;11.43;;;10.40;;
12038;SDS011;6080;48.818;9.526;2022-09-09T00:43:21;8.30;;;7.80;;
12038;SDS011;6080;48.818;9.526;2022-09-09T00:48:54;7.53;;;6.93;;
12038;SDS011;6080;48.818;9.526;2022-09-09T00:54:45;9.03;;;8.37;;
12038;SDS011;6080;48.818;9.526;2022-09-09T00:57:31;8.03;;;7.53;;
12038;SDS011;6080;48.818;9.526;2022-09-09T01:07:57;9.97;;;9.27;;
12038;SDS011;6080;48.818;9.526;2022-09-09T01:16:07;9.70;;;9.10;;
12038;SDS011;6080;48.818;9.526;2022-09-09T01:18:40;6.00;;;5.60;;
12038;SDS011;6080;48.818;9.526;2022-09-09T01:21:29;6.20;;;5.80;;
12038;SDS011;6080;48.818;9.526;2022-09-09T01:24:27;6.50;;;6.00;;
12038;SDS011;6080;48.818;9.526;2022-09-09T01:27:17;7.20;;;6.50;;
12038;SDS011;6080;48.818;9.526;2022-09-09T01:29:44;6.13;;;5.60;;
12038;SDS011;6080;48.818;9.526;2022-09-09T01:35:07;7.53;;;7.07;;
12038;SDS011;6080;48.818;9.526;2022-09-09T01:37:36;8.50;;;7.67;;
12038;SDS011;6080;48.818;9.526;2022-09-09T01:40:02;7.57;;;6.97;;
12038;SDS011;6080;48.818;9.526;2022-09-09T01:42:28;8.43;;;7.83;;
12038;SDS011;6080;48.818;9.526;2022-09-09T01:44:54;6.83;;;6.27;;
12038;SDS011;6080;48.818;9.526;2022-09-09T01:47:20;7.77;;;7.07;;
12038;SDS011;6080;48.818;9.526;2022-09-09T01:49:46;7.63;;;7.13;;
12038;SDS011;6080;48.818;9.526;2022-09-09T01:52:11;8.80;;;8.10;;
12038;SDS011;6080;48.818;9.526;2022-09-09T01:54:37;12.40;;;11.77;;
12038;SDS011;6080;48.818;9.526;2022-09-09T01:57:10;11.60;;;10.90;;
12038;SDS011;6080;48.818;9.526;2022-09-09T02:05:40;5.47;;;5.20;;
12038;SDS011;6080;48.818;9.526;2022-09-09T02:08:24;6.00;;;5.60;;
12038;SDS011;6080;48.818;9.526;2022-09-09T02:10:58;7.13;;;6.43;;
12038;SDS011;6080;48.818;9.526;2022-09-09T02:13:30;16.47;;;15.57;;
12038;SDS011;6080;48.818;9.526;2022-09-09T02:21:51;9.80;;;9.20;;
12038;SDS011;6080;48.818;9.526;2022-09-09T02:24:20;8.63;;;7.83;;
12038;SDS011;6080;48.818;9.526;2022-09-09T02:26:48;10.63;;;9.83;;
12038;SDS011;6080;48.818;9.526;2022-09-09T02:29:28;17.13;;;16.03;;
12038;SDS011;6080;48.818;9.526;2022-09-09T02:31:59;17.20;;;16.07;;
12038;SDS011;6080;48.818;9.526;2022-09-09T02:34:28;21.57;;;20.40;;
12038;SDS011;6080;48.818;9.526;2022-09-09T02:36:57;25.37;;;23.87;;
12038;SDS011;6080;48.818;9.526;2022-09-09T02:39:25;27.17;;;25.80;;
12038;SDS011;6080;48.818;9.526;2022-09-09T02:41:51;26.40;;;25.00;;
12038;SDS011;6080;48.818;9.526;2022-09-09T02:44:17;27.50;;;25.77;;
12038;SDS011;6080;48.818;9.526;2022-09-09T02:49:32;18.17;;;16.97;;
12038;SDS011;6080;48.818;9.526;2022-09-09T02:52:09;16.97;;;16.10;;
12038;SDS011;6080;48.818;9.526;2022-09-09T02:54:41;15.67;;;14.87;;
12038;SDS011;6080;48.818;9.526;2022-09-09T02:57:22;16.63;;;15.70;;
12038;SDS011;6080;48.818;9.526;2022-09-09T02:59:50;26.43;;;25.03;;
12038;SDS011;6080;48.818;9.526;2022-09-09T03:02:20;20.93;;;19.67;;
12038;SDS011;6080;48.818;9.526;2022-09-09T03:04:45;22.13;;;20.90;;
12038;SDS011;6080;48.818;9.526;2022-09-09T03:07:16;31.53;;;29.70;;
12038;SDS011;6080;48.818;9.526;2022-09-09T03:09:42;35.10;;;33.20;;
12038;SDS011;6080;48.818;9.526;2022-09-09T03:12:08;40.53;;;37.73;;
12038;SDS011;6080;48.818;9.526;2022-09-09T03:14:36;35.63;;;33.90;;
12038;SDS011;6080;48.818;9.526;2022-09-09T03:17:03;32.63;;;30.27;;
12038;SDS011;6080;48.818;9.526;2022-09-09T03:19:30;27.07;;;25.37;;
12038;SDS011;6080;48.818;9.526;2022-09-09T03:21:56;17.43;;;16.33;;
12038;SDS011;6080;48.818;9.526;2022-09-09T03:24:23;29.67;;;27.97;;
12038;SDS011;6080;48.818;9.526;2022-09-09T03:26:49;22.40;;;21.13;;
12038;SDS011;6080;48.818;9.526;2022-09-09T03:29:15;17.97;;;16.83;;
12038;SDS011;6080;48.818;9.526;2022-09-09T03:31:43;19.40;;;18.20;;
12038;SDS011;6080;48.818;9.526;2022-09-09T03:34:09;16.80;;;15.63;;
12038;SDS011;6080;48.818;9.526;2022-09-09T03:36:35;31.50;;;29.70;;
12038;SDS011;6080;48.818;9.526;2022-09-09T03:39:01;15.93;;;15.03;;
12038;SDS011;6080;48.818;9.526;2022-09-09T03:41:28;9.23;;;8.63;;
12038;SDS011;6080;48.818;9.526;2022-09-09T03:43:54;11.23;;;10.53;;
12038;SDS011;6080;48.818;9.526;2022-09-09T03:46:21;25.50;;;24.23;;
12038;SDS011;6080;48.818;9.526;2022-09-09T03:48:49;36.20;;;34.40;;
12038;SDS011;6080;48.818;9.526;2022-09-09T03:51:15;31.10;;;29.47;;
12038;SDS011;6080;48.818;9.526;2022-09-09T03:53:41;32.97;;;30.57;;
12038;SDS011;6080;48.818;9.526;2022-09-09T03:56:08;34.53;;;32.80;;
12038;SDS011;6080;48.818;9.526;2022-09-09T03:58:34;34.20;;;32.50;;
12038;SDS011;6080;48.818;9.526;2022-09-09T04:01:11;40.87;;;38.60;;
12038;SDS011;6080;48.818;9.526;2022-09-09T04:03:38;32.53;;;30.83;;
12038;SDS011;6080;48.818;9.526;2022-09-09T04:06:05;28.87;;;27.13;;
12038;SDS011;6080;48.818;9.526;2022-09-09T04:08:33;30.23;;;28.40;;
12038;SDS011;6080;48.818;9.526;2022-09-09T04:11:01;24.87;;;23.57;;
12038;SDS011;6080;48.818;9.526;2022-09-09T04:13:30;19.60;;;18.30;;
12038;SDS011;6080;48.818;9.526;2022-09-09T04:15:59;36.00;;;34.03;;
12038;SDS011;6080;48.818;9.526;2022-09-09T04:18:25;9.80;;;9.13;;
12038;SDS011;6080;48.818;9.526;2022-09-09T04:20:53;13.13;;;12.27;;
12038;SDS011;6080;48.818;9.526;2022-09-09T04:23:20;55.00;;;52.03;;
12038;SDS011;6080;48.818;9.526;2022-09-09T04:25:47;69.63;;;65.97;;
12038;SDS011;6080;48.818;9.526;2022-09-09T04:28:15;33.33;;;31.63;;
12038;SDS011;6080;48.818;9.526;2022-09-09T04:30:42;40.43;;;38.27;;
12038;SDS011;6080;48.818;9.526;2022-09-09T04:33:08;63.23;;;59.87;;
12038;SDS011;6080;48.818;9.526;2022-09-09T04:35:35;65.37;;;62.07;;
12038;SDS011;6080;48.818;9.526;2022-09-09T04:38:01;25.83;;;24.23;;
12038;SDS011;6080;48.818;9.526;2022-09-09T04:40:28;26.17;;;24.73;;
12038;SDS011;6080;48.818;9.526;2022-09-09T04:42:54;12.33;;;11.53;;
12038;SDS011;6080;48.818;9.526;2022-09-09T04:45:23;12.07;;;11.23;;
12038;SDS011;6080;48.818;9.526;2022-09-09T04:47:48;12.70;;;12.00;;
12038;SDS011;6080;48.818;9.526;2022-09-09T04:50:14;22.20;;;20.60;;
12038;SDS011;6080;48.818;9.526;2022-09-09T04:52:41;22.87;;;21.73;;
12038;SDS011;6080;48.818;9.526;2022-09-09T04:55:07;36.23;;;34.03;;
12038;SDS011;6080;48.818;9.526;2022-09-09T04:57:34;33.20;;;31.20;;
12038;SDS011;6080;48.818;9.526;2022-09-09T05:00:00;48.13;;;45.40;;
12038;SDS011;6080;48.818;9.526;2022-09-09T05:02:27;36.40;;;34.33;;
12038;SDS011;6080;48.818;9.526;2022-09-09T05:04:53;34.43;;;32.67;;
12038;SDS011;6080;48.818;9.526;2022-09-09T05:07:19;11.83;;;11.23;;
12038;SDS011;6080;48.818;9.526;2022-09-09T05:09:44;12.10;;;11.00;;
12038;SDS011;6080;48.818;9.526;2022-09-09T05:12:12;12.43;;;10.97;;
12038;SDS011;6080;48.818;9.526;2022-09-09T05:14:37;11.03;;;10.10;;
12038;SDS011;6080;48.818;9.526;2022-09-09T05:17:03;12.53;;;11.70;;
12038;SDS011;6080;48.818;9.526;2022-09-09T05:19:29;10.93;;;10.10;;
12038;SDS011;6080;48.818;9.526;2022-09-09T05:21:56;7.80;;;7.10;;
12038;SDS011;6080;48.818;9.526;2022-09-09T05:24:22;8.40;;;7.70;;
12038;SDS011;6080;48.818;9.526;2022-09-09T05:26:51;7.87;;;7.27;;
12038;SDS011;6080;48.818;9.526;2022-09-09T05:29:17;10.20;;;7.53;;
12038;SDS011;6080;48.818;9.526;2022-09-09T05:31:44;12.43;;;11.63;;
12038;SDS011;6080;48.818;9.526;2022-09-09T05:34:12;11.03;;;10.27;;
12038;SDS011;6080;48.818;9.526;2022-09-09T05:36:37;16.43;;;15.60;;
12038;SDS011;6080;48.818;9.526;2022-09-09T05:39:03;19.70;;;18.30;;
12038;SDS011;6080;48.818;9.526;2022-09-09T05:41:29;8.30;;;7.70;;
12038;SDS011;6080;48.818;9.526;2022-09-09T05:43:56;7.10;;;6.60;;
12038;SDS011;6080;48.818;9.526;2022-09-09T05:46:24;9.73;;;8.77;;
12038;SDS011;6080;48.818;9.526;2022-09-09T05:48:50;12.57;;;11.63;;
12038;SDS011;6080;48.818;9.526;2022-09-09T05:51:18;6.37;;;5.87;;
12038;SDS011;6080;48.818;9.526;2022-09-09T05:53:49;5.77;;;5.27;;
12038;SDS011;6080;48.818;9.526;2022-09-09T05:56:17;8.67;;;7.80;;
12038;SDS011;6080;48.818;9.526;2022-09-09T05:58:47;13.07;;;12.10;;
12038;SDS011;6080;48.818;9.526;2022-09-09T06:03:42;70.17;;;66.17;;
12038;SDS011;6080;48.818;9.526;2022-09-09T06:06:15;28.40;;;26.63;;
12038;SDS011;6080;48.818;9.526;2022-09-09T06:08:45;8.43;;;7.67;;
12038;SDS011;6080;48.818;9.526;2022-09-09T06:11:13;20.93;;;19.67;;
12038;SDS011;6080;48.818;9.526;2022-09-09T06:13:41;18.07;;;17.03;;
12038;SDS011;6080;48.818;9.526;2022-09-09T06:16:08;6.43;;;5.97;;
12038;SDS011;6080;48.818;9.526;2022-09-09T06:18:38;8.53;;;8.03;;
12038;SDS011;6080;48.818;9.526;2022-09-09T06:21:06;8.30;;;7.80;;
12038;SDS011;6080;48.818;9.526;2022-09-09T06:23:36;8.00;;;7.60;;
12038;SDS011;6080;48.818;9.526;2022-09-09T06:28:38;13.30;;;12.50;;
12038;SDS011;6080;48.818;9.526;2022-09-09T06:31:06;11.43;;;10.53;;
12038;SDS011;6080;48.818;9.526;2022-09-09T06:33:35;10.93;;;10.03;;
12038;SDS011;6080;48.818;9.526;2022-09-09T06:36:06;10.90;;;10.00;;
12038;SDS011;6080;48.818;9.526;2022-09-09T06:38:36;11.00;;;10.20;;
12038;SDS011;6080;48.818;9.526;2022-09-09T06:41:02;10.10;;;9.50;;
12038;SDS011;6080;48.818;9.526;2022-09-09T06:43:31;15.20;;;14.37;;
12038;SDS011;6080;48.818;9.526;2022-09-09T06:45:58;33.00;;;30.73;;
12038;SDS011;6080;48.818;9.526;2022-09-09T06:48:26;39.23;;;36.97;;
12038;SDS011;6080;48.818;9.526;2022-09-09T06:53:43;32.53;;;30.63;;
12038;SDS011;6080;48.818;9.526;2022-09-09T06:58:37;46.97;;;44.43;;
12038;SDS011;6080;48.818;9.526;2022-09-09T07:01:15;28.57;;;26.83;;
12038;SDS011;6080;48.818;9.526;2022-09-09T07:03:42;15.13;;;14.30;;
12038;SDS011;6080;48.818;9.526;2022-09-09T07:06:18;13.57;;;12.57;;
12038;SDS011;6080;48.818;9.526;2022-09-09T07:08:52;12.60;;;11.77;;
12038;SDS011;6080;48.818;9.526;2022-09-09T07:11:20;10.07;;;9.47;;
12038;SDS011;6080;48.818;9.526;2022-09-09T07:13:48;16.27;;;14.83;;
12038;SDS011;6080;48.818;9.526;2022-09-09T07:16:18;20.60;;;19.20;;
12038;SDS011;6080;48.818;9.526;2022-09-09T07:18:47;25.57;;;23.83;;
12038;SDS011;6080;48.818;9.526;2022-09-09T07:21:13;63.23;;;59.80;;
12038;SDS011;6080;48.818;9.526;2022-09-09T07:23:40;92.43;;;87.87;;
12038;SDS011;6080;48.818;9.526;2022-09-09T07:26:11;136.97;;;130.03;;
12038;SDS011;6080;48.818;9.526;2022-09-09T07:28:38;150.37;;;143.03;;
12038;SDS011;6080;48.818;9.526;2022-09-09T07:31:06;74.57;;;70.63;;
12038;SDS011;6080;48.818;9.526;2022-09-09T07:33:33;16.77;;;15.87;;
12038;SDS011;6080;48.818;9.526;2022-09-09T07:36:06;17.40;;;16.30;;
12038;SDS011;6080;48.818;9.526;2022-09-09T07:38:53;6.13;;;4.77;;
12038;SDS011;6080;48.818;9.526;2022-09-09T07:41:22;6.13;;;5.83;;
12038;SDS011;6080;48.818;9.526;2022-09-09T07:43:50;6.13;;;5.73;;
12038;SDS011;6080;48.818;9.526;2022-09-09T07:46:19;7.77;;;7.17;;
12038;SDS011;6080;48.818;9.526;2022-09-09T07:48:47;6.10;;;5.23;;
12038;SDS011;6080;48.818;9.526;2022-09-09T07:51:19;8.37;;;7.57;;
12038;SDS011;6080;48.818;9.526;2022-09-09T07:53:47;6.90;;;6.30;;
12038;SDS011;6080;48.818;9.526;2022-09-09T07:56:17;8.37;;;7.77;;
12038;SDS011;6080;48.818;9.526;2022-09-09T07:58:44;12.43;;;11.60;;
12038;SDS011;6080;48.818;9.526;2022-09-09T08:01:16;12.53;;;11.93;;
12038;SDS011;6080;48.818;9.526;2022-09-09T08:03:44;10.13;;;9.43;;
12038;SDS011;6080;48.818;9.526;2022-09-09T08:06:11;11.20;;;10.60;;
12038;SDS011;6080;48.818;9.526;2022-09-09T08:08:39;16.30;;;15.30;;
12038;SDS011;6080;48.818;9.526;2022-09-09T08:11:08;10.57;;;9.83;;
12038;SDS011;6080;48.818;9.526;2022-09-09T08:13:37;10.73;;;10.13;;
12038;SDS011;6080;48.818;9.526;2022-09-09T08:18:34;12.77;;;11.87;;
12038;SDS011;6080;48.818;9.526;2022-09-09T08:21:07;10.07;;;9.40;;
12038;SDS011;6080;48.818;9.526;2022-09-09T08:23:38;7.00;;;6.50;;
12038;SDS011;6080;48.818;9.526;2022-09-09T08:26:11;37.55;;;35.60;;
12038;SDS011;6080;48.818;9.526;2022-09-09T08:28:42;73.18;;;69.35;;
12038;SDS011;6080;48.818;9.526;2022-09-09T08:31:09;47.78;;;45.20;;
12038;SDS011;6080;48.818;9.526;2022-09-09T08:33:37;15.07;;;14.20;;
12038;SDS011;6080;48.818;9.526;2022-09-09T08:36:04;21.13;;;19.90;;
12038;SDS011;6080;48.818;9.526;2022-09-09T08:38:32;13.20;;;12.48;;
12038;SDS011;6080;48.818;9.526;2022-09-09T08:43:36;5.10;;;4.25;;
12038;SDS011;6080;48.818;9.526;2022-09-09T08:48:59;4.20;;;3.85;;
12038;SDS011;6080;48.818;9.526;2022-09-09T08:51:27;4.57;;;4.18;;
12038;SDS011;6080;48.818;9.526;2022-09-09T08:53:55;6.30;;;4.30;;
12038;SDS011;6080;48.818;9.526;2022-09-09T08:56:26;6.43;;;5.68;;
12038;SDS011;6080;48.818;9.526;2022-09-09T08:58:56;4.82;;;4.43;;
12038;SDS011;6080;48.818;9.526;2022-09-09T09:04:29;6.55;;;5.30;;
12038;SDS011;6080;48.818;9.526;2022-09-09T09:07:07;5.68;;;4.25;;
12038;SDS011;6080;48.818;9.526;2022-09-09T09:09:45;4.85;;;4.35;;
12038;SDS011;6080;48.818;9.526;2022-09-09T09:12:39;5.90;;;5.38;;
12038;SDS011;6080;48.818;9.526;2022-09-09T09:15:11;11.02;;;7.05;;
12038;SDS011;6080;48.818;9.526;2022-09-09T09:17:45;8.75;;;6.45;;
12038;SDS011;6080;48.818;9.526;2022-09-09T09:20:11;15.98;;;12.40;;
12038;SDS011;6080;48.818;9.526;2022-09-09T09:22:58;10.48;;;8.75;;
12038;SDS011;6080;48.818;9.526;2022-09-09T09:25:35;7.40;;;5.68;;
12038;SDS011;6080;48.818;9.526;2022-09-09T09:30:46;3.35;;;3.03;;
12038;SDS011;6080;48.818;9.526;2022-09-09T09:33:31;5.22;;;4.78;;
12038;SDS011;6080;48.818;9.526;2022-09-09T09:35:58;4.97;;;4.53;;
12038;SDS011;6080;48.818;9.526;2022-09-09T09:38:25;4.25;;;3.30;;
12038;SDS011;6080;48.818;9.526;2022-09-09T09:40:55;3.55;;;2.80;;
12038;SDS011;6080;48.818;9.526;2022-09-09T09:46:05;3.92;;;3.08;;
12038;SDS011;6080;48.818;9.526;2022-09-09T09:48:43;3.13;;;2.80;;
12038;SDS011;6080;48.818;9.526;2022-09-09T09:51:11;8.30;;;5.00;;
12038;SDS011;6080;48.818;9.526;2022-09-09T09:53:41;5.72;;;5.22;;
12038;SDS011;6080;48.818;9.526;2022-09-09T09:56:08;7.18;;;6.68;;
12038;SDS011;6080;48.818;9.526;2022-09-09T09:58:57;10.60;;;9.85;;
12038;SDS011;6080;48.818;9.526;2022-09-09T10:01:26;8.88;;;8.43;;
12038;SDS011;6080;48.818;9.526;2022-09-09T10:03:57;14.57;;;13.57;;
12038;SDS011;6080;48.818;9.526;2022-09-09T10:08:56;33.78;;;31.75;;
12038;SDS011;6080;48.818;9.526;2022-09-09T10:20:00;5.32;;;4.93;;
12038;SDS011;6080;48.818;9.526;2022-09-09T10:22:47;10.32;;;9.73;;
12038;SDS011;6080;48.818;9.526;2022-09-09T10:28:09;27.10;;;25.75;;
12038;SDS011;6080;48.818;9.526;2022-09-09T10:33:55;9.65;;;9.23;;
12038;SDS011;6080;48.818;9.526;2022-09-09T10:36:49;14.30;;;13.55;;
12038;SDS011;6080;48.818;9.526;2022-09-09T10:42:08;7.75;;;7.25;;
12038;SDS011;6080;48.818;9.526;2022-09-09T10:47:33;3.55;;;3.20;;
12038;SDS011;6080;48.818;9.526;2022-09-09T10:50:22;3.70;;;3.50;;
12038;SDS011;6080;48.818;9.526;2022-09-09T10:53:05;5.43;;;5.10;;
12038;SDS011;6080;48.818;9.526;2022-09-09T10:55:35;11.63;;;10.70;;
12038;SDS011;6080;48.818;9.526;2022-09-09T10:58:09;22.30;;;21.10;;
12038;SDS011;6080;48.818;9.526;2022-09-09T11:00:42;12.73;;;11.95;;
12038;SDS011;6080;48.818;9.526;2022-09-09T11:03:19;15.30;;;14.40;;
12038;SDS011;6080;48.818;9.526;2022-09-09T11:05:57;10.18;;;9.60;;
12038;SDS011;6080;48.818;9.526;2022-09-09T11:08:29;5.68;;;5.00;;
12038;SDS011;6080;48.818;9.526;2022-09-09T11:11:06;3.78;;;3.58;;
12038;SDS011;6080;48.818;9.526;2022-09-09T11:16:28;4.93;;;4.03;;
12038;SDS011;6080;48.818;9.526;2022-09-09T11:19:02;5.70;;;5.40;;
12038;SDS011;6080;48.818;9.526;2022-09-09T11:21:49;3.80;;;3.58;;
12038;SDS011;6080;48.818;9.526;2022-09-09T11:24:21;5.18;;;4.88;;
12038;SDS011;6080;48.818;9.526;2022-09-09T11:26:51;5.93;;;5.60;;
12038;SDS011;6080;48.818;9.526;2022-09-09T11:29:36;8.70;;;7.75;;
12038;SDS011;6080;48.818;9.526;2022-09-09T11:34:54;7.38;;;6.75;;
12038;SDS011;6080;48.818;9.526;2022-09-09T11:40:27;7.47;;;6.82;;
12038;SDS011;6080;48.818;9.526;2022-09-09T11:45:31;7.60;;;7.07;;
12038;SDS011;6080;48.818;9.526;2022-09-09T11:48:01;21.08;;;20.08;;
12038;SDS011;6080;48.818;9.526;2022-09-09T11:55:48;21.77;;;19.52;;
12038;SDS011;6080;48.818;9.526;2022-09-09T11:58:27;16.02;;;12.60;;
12038;SDS011;6080;48.818;9.526;2022-09-09T12:00:58;9.45;;;8.45;;
12038;SDS011;6080;48.818;9.526;2022-09-09T12:05:58;48.90;;;46.00;;
12038;SDS011;6080;48.818;9.526;2022-09-09T12:08:26;46.07;;;43.53;;
12038;SDS011;6080;48.818;9.526;2022-09-09T12:10:55;76.90;;;72.87;;
12038;SDS011;6080;48.818;9.526;2022-09-09T12:13:23;123.03;;;116.70;;
12038;SDS011;6080;48.818;9.526;2022-09-09T12:15:52;88.27;;;83.63;;
12038;SDS011;6080;48.818;9.526;2022-09-09T12:18:23;78.03;;;73.93;;
12038;SDS011;6080;48.818;9.526;2022-09-09T12:21:14;47.00;;;44.57;;
12038;SDS011;6080;48.818;9.526;2022-09-09T12:23:49;38.73;;;36.53;;
12038;SDS011;6080;48.818;9.526;2022-09-09T12:26:25;10.87;;;10.23;;
12038;SDS011;6080;48.818;9.526;2022-09-09T12:37:13;102.53;;;97.15;;
12038;SDS011;6080;48.818;9.526;2022-09-09T12:39:59;5.03;;;4.53;;
12038;SDS011;6080;48.818;9.526;2022-09-09T12:42:29;7.03;;;5.70;;
12038;SDS011;6080;48.818;9.526;2022-09-09T12:45:02;5.15;;;3.88;;
12038;SDS011;6080;48.818;9.526;2022-09-09T12:47:44;3.00;;;2.80;;
12038;SDS011;6080;48.818;9.526;2022-09-09T12:50:24;2.92;;;2.72;;
12038;SDS011;6080;48.818;9.526;2022-09-09T12:52:53;3.45;;;3.10;;
12038;SDS011;6080;48.818;9.526;2022-09-09T12:55:24;16.77;;;15.77;;
12038;SDS011;6080;48.818;9.526;2022-09-09T12:57:55;17.48;;;16.23;;
12038;SDS011;6080;48.818;9.526;2022-09-09T13:00:23;26.42;;;24.98;;
12038;SDS011;6080;48.818;9.526;2022-09-09T13:02:53;40.80;;;38.63;;
12038;SDS011;6080;48.818;9.526;2022-09-09T13:05:28;37.97;;;36.03;;
12038;SDS011;6080;48.818;9.526;2022-09-09T13:08:02;35.33;;;33.28;;
12038;SDS011;6080;48.818;9.526;2022-09-09T13:10:29;52.88;;;49.97;;
12038;SDS011;6080;48.818;9.526;2022-09-09T13:12:58;31.73;;;29.83;;
12038;SDS011;6080;48.818;9.526;2022-09-09T13:15:26;22.85;;;21.45;;
12038;SDS011;6080;48.818;9.526;2022-09-09T13:17:55;30.70;;;29.15;;
12038;SDS011;6080;48.818;9.526;2022-09-09T13:20:25;21.38;;;20.20;;
12038;SDS011;6080;48.818;9.526;2022-09-09T13:22:53;17.23;;;16.25;;
12038;SDS011;6080;48.818;9.526;2022-09-09T13:28:01;14.52;;;13.75;;
12038;SDS011;6080;48.818;9.526;2022-09-09T13:30:32;14.18;;;13.07;;
12038;SDS011;6080;48.818;9.526;2022-09-09T13:38:18;6.57;;;3.55;;
12038;SDS011;6080;48.818;9.526;2022-09-09T13:40:57;4.40;;;4.10;;
12038;SDS011;6080;48.818;9.526;2022-09-09T13:43:45;4.70;;;4.43;;
12038;SDS011;6080;48.818;9.526;2022-09-09T13:49:01;4.90;;;4.50;;
12038;SDS011;6080;48.818;9.526;2022-09-09T13:51:37;3.42;;;3.17;;
12038;SDS011;6080;48.818;9.526;2022-09-09T13:54:06;3.78;;;3.50;;
12038;SDS011;6080;48.818;9.526;2022-09-09T13:56:35;5.15;;;4.72;;
12038;SDS011;6080;48.818;9.526;2022-09-09T13:59:03;4.55;;;4.15;;
12038;SDS011;6080;48.818;9.526;2022-09-09T14:01:30;6.45;;;5.93;;
12038;SDS011;6080;48.818;9.526;2022-09-09T14:03:56;5.82;;;5.32;;
12038;SDS011;6080;48.818;9.526;2022-09-09T14:06:22;9.88;;;7.45;;
12038;SDS011;6080;48.818;9.526;2022-09-09T14:08:49;9.10;;;8.48;;
12038;SDS011;6080;48.818;9.526;2022-09-09T14:11:15;5.55;;;5.25;;
12038;SDS011;6080;48.818;9.526;2022-09-09T14:13:42;3.85;;;3.53;;
12038;SDS011;6080;48.818;9.526;2022-09-09T14:16:08;3.78;;;3.53;;
12038;SDS011;6080;48.818;9.526;2022-09-09T14:18:35;6.82;;;5.22;;
12038;SDS011;6080;48.818;9.526;2022-09-09T14:21:03;6.82;;;6.60;;
12038;SDS011;6080;48.818;9.526;2022-09-09T14:23:29;15.80;;;14.80;;
12038;SDS011;6080;48.818;9.526;2022-09-09T14:25:55;14.38;;;13.57;;
12038;SDS011;6080;48.818;9.526;2022-09-09T14:28:20;16.98;;;15.85;;
12038;SDS011;6080;48.818;9.526;2022-09-09T14:30:47;20.83;;;19.73;;
12038;SDS011;6080;48.818;9.526;2022-09-09T14:33:14;11.90;;;11.27;;
12038;SDS011;6080;48.818;9.526;2022-09-09T14:35:41;16.65;;;15.73;;
12038;SDS011;6080;48.818;9.526;2022-09-09T14:38:08;22.40;;;21.30;;
12038;SDS011;6080;48.818;9.526;2022-09-09T14:40:35;19.92;;;18.85;;
12038;SDS011;6080;48.818;9.526;2022-09-09T14:43:02;20.75;;;19.75;;
12038;SDS011;6080;48.818;9.526;2022-09-09T14:45:29;18.25;;;17.20;;
12038;SDS011;6080;48.818;9.526;2022-09-09T14:47:55;14.63;;;14.00;;
12038;SDS011;6080;48.818;9.526;2022-09-09T14:50:21;13.75;;;12.70;;
12038;SDS011;6080;48.818;9.526;2022-09-09T14:52:47;9.43;;;8.82;;
12038;SDS011;6080;48.818;9.526;2022-09-09T14:55:14;9.48;;;8.95;;
12038;SDS011;6080;48.818;9.526;2022-09-09T14:57:40;11.05;;;9.98;;
12038;SDS011;6080;48.818;9.526;2022-09-09T15:00:07;7.78;;;7.25;;
12038;SDS011;6080;48.818;9.526;2022-09-09T15:02:35;7.72;;;7.22;;
12038;SDS011;6080;48.818;9.526;2022-09-09T15:05:00;10.23;;;9.32;;
12038;SDS011;6080;48.818;9.526;2022-09-09T15:07:27;11.32;;;10.30;;
12038;SDS011;6080;48.818;9.526;2022-09-09T15:09:53;8.48;;;7.90;;
12038;SDS011;6080;48.818;9.526;2022-09-09T15:12:20;7.57;;;7.18;;
12038;SDS011;6080;48.818;9.526;2022-09-09T15:14:46;8.15;;;7.72;;
12038;SDS011;6080;48.818;9.526;2022-09-09T15:17:13;6.43;;;6.03;;
12038;SDS011;6080;48.818;9.526;2022-09-09T15:19:38;6.45;;;6.05;;
12038;SDS011;6080;48.818;9.526;2022-09-09T15:22:05;6.65;;;6.25;;
12038;SDS011;6080;48.818;9.526;2022-09-09T15:24:32;5.88;;;5.47;;
12038;SDS011;6080;48.818;9.526;2022-09-09T15:26:58;8.65;;;8.15;;
12038;SDS011;6080;48.818;9.526;2022-09-09T15:29:24;13.88;;;13.18;;
12038;SDS011;6080;48.818;9.526;2022-09-09T15:31:50;9.13;;;8.63;;
12038;SDS011;6080;48.818;9.526;2022-09-09T15:34:18;8.43;;;8.00;;
12038;SDS011;6080;48.818;9.526;2022-09-09T15:36:44;5.97;;;5.65;;
12038;SDS011;6080;48.818;9.526;2022-09-09T15:39:12;4.57;;;4.38;;
12038;SDS011;6080;48.818;9.526;2022-09-09T15:41:43;3.80;;;3.70;;
12038;SDS011;6080;48.818;9.526;2022-09-09T15:44:13;4.85;;;4.55;;
12038;SDS011;6080;48.818;9.526;2022-09-09T15:46:41;9.05;;;8.65;;
12038;SDS011;6080;48.818;9.526;2022-09-09T15:49:17;26.33;;;25.10;;
12038;SDS011;6080;48.818;9.526;2022-09-09T15:51:54;19.58;;;18.65;;
12038;SDS011;6080;48.818;9.526;2022-09-09T15:54:22;19.15;;;18.02;;
12038;SDS011;6080;48.818;9.526;2022-09-09T15:56:50;13.07;;;12.45;;
12038;SDS011;6080;48.818;9.526;2022-09-09T15:59:20;10.32;;;9.30;;
12038;SDS011;6080;48.818;9.526;2022-09-09T16:01:50;8.40;;;8.00;;
12038;SDS011;6080;48.818;9.526;2022-09-09T16:04:17;8.50;;;8.02;;
12038;SDS011;6080;48.818;9.526;2022-09-09T16:06:52;5.32;;;4.97;;
12038;SDS011;6080;48.818;9.526;2022-09-09T16:09:19;5.35;;;5.03;;
12038;SDS011;6080;48.818;9.526;2022-09-09T16:11:44;4.13;;;4.03;;
12038;SDS011;6080;48.818;9.526;2022-09-09T16:14:13;3.53;;;3.40;;
12038;SDS011;6080;48.818;9.526;2022-09-09T16:16:41;11.38;;;10.80;;
12038;SDS011;6080;48.818;9.526;2022-09-09T16:19:08;16.88;;;15.85;;
12038;SDS011;6080;48.818;9.526;2022-09-09T16:21:37;25.20;;;24.10;;
12038;SDS011;6080;48.818;9.526;2022-09-09T16:24:05;25.80;;;24.50;;
12038;SDS011;6080;48.818;9.526;2022-09-09T16:26:33;22.65;;;21.55;;
12038;SDS011;6080;48.818;9.526;2022-09-09T16:29:00;10.75;;;10.15;;
12038;SDS011;6080;48.818;9.526;2022-09-09T16:31:28;5.00;;;4.80;;
12038;SDS011;6080;48.818;9.526;2022-09-09T16:33:57;5.55;;;5.15;;
12038;SDS011;6080;48.818;9.526;2022-09-09T16:36:29;4.60;;;4.37;;
12038;SDS011;6080;48.818;9.526;2022-09-09T16:38:58;4.37;;;4.07;;
12038;SDS011;6080;48.818;9.526;2022-09-09T16:41:26;4.00;;;3.80;;
12038;SDS011;6080;48.818;9.526;2022-09-09T16:43:53;4.40;;;4.10;;
12038;SDS011;6080;48.818;9.526;2022-09-09T16:46:20;4.30;;;4.03;;
12038;SDS011;6080;48.818;9.526;2022-09-09T16:48:47;4.93;;;4.73;;
12038;SDS011;6080;48.818;9.526;2022-09-09T16:51:15;4.45;;;4.22;;
12038;SDS011;6080;48.818;9.526;2022-09-09T16:53:43;5.30;;;4.90;;
12038;SDS011;6080;48.818;9.526;2022-09-09T16:56:11;4.78;;;4.55;;
12038;SDS011;6080;48.818;9.526;2022-09-09T16:58:42;4.25;;;3.85;;
12038;SDS011;6080;48.818;9.526;2022-09-09T17:01:09;4.80;;;4.53;;
12038;SDS011;6080;48.818;9.526;2022-09-09T17:03:39;3.75;;;3.47;;
12038;SDS011;6080;48.818;9.526;2022-09-09T17:06:13;3.90;;;3.70;;
12038;SDS011;6080;48.818;9.526;2022-09-09T17:08:41;3.10;;;3.00;;
12038;SDS011;6080;48.818;9.526;2022-09-09T17:11:13;7.23;;;6.97;;
12038;SDS011;6080;48.818;9.526;2022-09-09T17:13:44;34.23;;;32.63;;
12038;SDS011;6080;48.818;9.526;2022-09-09T17:16:12;45.20;;;43.00;;